Time;durP1;ratioP1;P1;durP2;ratioP2;P2;SDS_P1;SDS_P2;PMS_P1;PMS_P2;Temp;Humidity;BMP_temperature;BMP_pressure;BME280_temperature;BME280_humidity;BME280_pressure;Samples;Min_cycle;Max_cycle;Signal;HPM_P1;HPM_P2
2022/01/08 00:01:00;799658.00;2.67;1380.53;97067.00;0.32;168.51;;;;;8.30;1.00;;;;;;2263087;61;2006;-91
2022/01/08 00:03:38;867238.00;2.89;1498.65;70971.00;0.24;123.44;;;;;8.40;1.00;;;;;;2263332;61;1586;-90
2022/01/08 00:06:12;797953.00;2.66;1377.55;0.00;0.00;0.62;;;;;8.00;1.00;;;;;;2262941;61;1055;-90
2022/01/08 00:11:18;1143634.00;3.81;1988.63;13662.00;0.05;24.29;;;;;8.00;1.00;;;;;;2290725;60;1426;-90
2022/01/08 00:14:04;;;;;;;;;;;;;;;;;;;;;
2022/01/08 00:16:35;444020.00;1.48;765.50;0.00;0.00;0.62;;;;;7.60;1.00;;;;;;2288859;60;972;-89
2022/01/08 00:19:05;606488.00;2.02;1045.42;0.00;0.00;0.62;;;;;7.60;1.00;;;;;;2288785;60;1005;-89
2022/01/08 00:21:37;676110.00;2.25;1165.83;41444.00;0.14;72.39;;;;;7.40;1.00;;;;;;2288781;60;1982;-90
2022/01/08 00:24:13;440734.00;1.47;759.85;0.00;0.00;0.62;;;;;7.70;1.00;;;;;;2276082;61;943;-90
2022/01/08 00:44:24;809838.00;2.70;1398.29;0.00;0.00;0.62;;;;;8.00;1.00;;;;;;2286557;60;1242;-89
2022/01/08 00:46:53;590874.00;1.97;1018.47;0.00;0.00;0.62;;;;;8.30;1.00;;;;;;2275889;61;968;-90
2022/01/08 00:49:20;442192.00;1.47;762.35;0.00;0.00;0.62;;;;;8.30;1.00;;;;;;2275950;61;1259;-89
2022/01/08 00:51:48;527718.00;1.76;909.56;0.00;0.00;0.62;;;;;8.80;1.00;;;;;;2276077;61;1391;-88
2022/01/08 00:54:31;462037.00;1.54;796.49;0.00;0.00;0.62;;;;;8.40;1.00;;;;;;2276078;61;1753;-89
2022/01/08 00:57:02;654590.00;2.18;1128.58;21177.00;0.07;37.31;;;;;8.50;1.00;;;;;;2276068;61;1797;-89
2022/01/08 00:59:30;436468.00;1.45;752.51;0.00;0.00;0.62;;;;;8.70;1.00;;;;;;2276124;61;1918;-88
2022/01/08 01:01:57;413842.00;1.38;713.60;0.00;0.00;0.62;;;;;8.80;1.00;;;;;;2267876;61;1292;-87
2022/01/08 01:04:26;351502.00;1.17;606.44;0.00;0.00;0.62;;;;;9.00;1.00;;;;;;2262099;61;949;-88
2022/01/08 01:06:55;316452.00;1.05;546.20;0.00;0.00;0.62;;;;;8.90;1.00;;;;;;2267989;61;1022;-88
2022/01/08 01:09:23;472602.00;1.58;814.67;0.00;0.00;0.62;;;;;9.00;1.00;;;;;;2259868;61;978;-88
2022/01/08 01:11:55;299169.00;1.00;516.49;0.00;0.00;0.62;;;;;9.10;1.00;;;;;;2259833;61;1778;-89
2022/01/08 01:14:23;651986.00;2.17;1124.07;94465.00;0.31;164.02;;;;;9.40;1.00;;;;;;2259846;61;1519;-89
2022/01/08 01:16:51;118101144.00;393.67;66726412.00;91048.00;0.30;158.12;;;;;9.40;1.00;;;;;;2259923;61;951;-87
2022/01/08 01:19:22;516301.00;1.72;889.89;67963.00;0.23;118.24;;;;;9.80;1.00;;;;;;2261353;61;1539;-89
2022/01/08 01:21:52;438763.00;1.46;756.46;86579.00;0.29;150.40;;;;;9.40;1.00;;;;;;2269610;61;1997;-89
2022/01/08 01:24:23;552032.00;1.84;951.46;87166.00;0.29;151.41;;;;;9.40;1.00;;;;;;2263887;61;1069;-89
2022/01/08 01:27:12;499919.00;1.67;861.68;87935.00;0.29;152.74;;;;;9.20;1.00;;;;;;2265781;61;1714;-88
2022/01/08 01:29:49;584547.00;1.95;1007.55;90142.00;0.30;156.55;;;;;9.20;1.00;;;;;;2271948;61;1790;-88
2022/01/08 01:43:34;577943.00;1.93;996.15;87219.00;0.29;151.51;;;;;8.90;1.00;;;;;;2281930;60;1073;-89
2022/01/08 01:49:09;666471.00;2.22;1149.14;91432.00;0.30;158.78;;;;;8.60;1.00;;;;;;2284326;60;1326;-89
2022/01/08 01:51:37;538996.00;1.80;928.99;3998.00;0.01;7.55;;;;;8.40;1.00;;;;;;2284516;60;1625;-89
2022/01/08 01:54:06;1089728.00;3.63;1892.06;102352.00;0.34;177.63;;;;;8.50;1.00;;;;;;2284638;60;922;-89
2022/01/08 01:56:34;626629.00;2.09;1080.22;0.00;0.00;0.62;;;;;8.80;1.00;;;;;;2271846;61;972;-89
2022/01/08 01:59:13;;;;;;;;;;;;;;;;;;;;;
2022/01/08 02:01:42;497764.00;1.66;857.97;0.00;0.00;0.62;;;;;8.70;1.00;;;;;;2271747;61;2012;-89
2022/01/08 02:04:12;537630.00;1.79;926.64;0.00;0.00;0.62;;;;;9.00;1.00;;;;;;2267725;61;970;-90
2022/01/08 02:06:42;689580.00;2.30;1189.17;9711.00;0.03;17.45;;;;;9.00;1.00;;;;;;2267727;61;1469;-90
2022/01/08 02:09:14;645960.00;2.15;1113.65;42025.00;0.14;73.39;;;;;9.00;1.00;;;;;;2267710;61;919;-91
2022/01/08 02:12:02;435249.00;1.45;750.41;0.00;0.00;0.62;;;;;8.80;1.00;;;;;;2259650;61;1468;-88
2022/01/08 02:14:34;301611.00;1.01;520.69;0.00;0.00;0.62;;;;;8.90;1.00;;;;;;2257004;61;936;-89
2022/01/08 02:17:15;507039.00;1.69;873.94;0.00;0.00;0.62;;;;;9.00;1.00;;;;;;2259638;61;982;-90
2022/01/08 02:19:47;317499.00;1.06;548.00;0.00;0.00;0.62;;;;;9.00;1.00;;;;;;2255546;61;1941;-88
2022/01/08 02:22:20;631727.00;2.11;1089.03;0.00;0.00;0.62;;;;;9.10;1.00;;;;;;2257520;61;1557;-89
2022/01/08 02:24:49;338035.00;1.13;583.30;0.00;0.00;0.62;;;;;8.90;1.00;;;;;;2259644;61;1781;-89
2022/01/08 02:27:18;589121.00;1.96;1015.44;0.00;0.00;0.62;;;;;8.90;1.00;;;;;;2259596;61;1500;-89
2022/01/08 02:29:49;717141.00;2.39;1236.98;24286.00;0.08;42.69;;;;;8.90;1.00;;;;;;2261590;61;1675;-89
2022/01/08 02:32:25;317466.00;1.06;547.94;0.00;0.00;0.62;;;;;9.20;1.00;;;;;;2264894;61;1469;-89
2022/01/08 02:34:52;290593.00;0.97;501.75;0.00;0.00;0.62;;;;;9.30;1.00;;;;;;2269323;61;922;-89
2022/01/08 02:37:29;532091.00;1.77;917.09;0.00;0.00;0.62;;;;;9.00;1.00;;;;;;2275661;60;1219;-89
2022/01/08 02:39:56;441654.00;1.47;761.43;0.00;0.00;0.62;;;;;8.70;1.00;;;;;;2271633;61;1994;-88
2022/01/08 02:42:38;393212.00;1.31;678.14;0.00;0.00;0.62;;;;;8.80;1.00;;;;;;2271498;61;1566;-87
2022/01/08 02:45:12;501563.00;1.67;864.51;0.00;0.00;0.62;;;;;8.50;1.00;;;;;;2271628;61;1738;-88
2022/01/08 02:47:42;859514.00;2.87;1485.12;60042.00;0.20;104.55;;;;;8.90;1.00;;;;;;2271786;61;1060;-90
2022/01/08 02:50:21;602129.00;2.01;1037.90;18724.00;0.06;33.06;;;;;8.80;1.00;;;;;;2259551;61;1097;-89
2022/01/08 02:52:57;591567.00;1.97;1019.66;0.00;0.00;0.62;;;;;8.20;1.00;;;;;;2251455;61;1375;-88
2022/01/08 02:55:28;658180.00;2.19;1134.79;0.00;0.00;0.62;;;;;7.50;1.00;;;;;;2251483;61;1795;-88
2022/01/08 02:58:25;;;;;;;;;;;;;;;;;;;;;
2022/01/08 03:01:03;629536.00;2.10;1085.25;87321.00;0.29;151.68;;;;;7.40;1.00;;;;;;2259991;61;1908;-88
2022/01/08 03:03:37;863273.00;2.88;1491.70;101381.00;0.34;175.96;;;;;7.50;1.00;;;;;;2263451;61;1725;-89
2022/01/08 03:06:21;664379.00;2.21;1145.52;0.00;0.00;0.62;;;;;7.60;1.00;;;;;;2263605;61;1023;-88
2022/01/08 03:08:54;656263.00;2.19;1131.47;0.00;0.00;0.62;;;;;7.40;1.00;;;;;;2272699;61;1817;-89
2022/01/08 03:11:29;645885.00;2.15;1113.52;0.00;0.00;0.62;;;;;7.30;1.00;;;;;;2281684;60;1656;-87
2022/01/08 03:14:26;519691.00;1.73;895.73;0.00;0.00;0.62;;;;;7.60;1.00;;;;;;2284159;60;1692;-89
2022/01/08 03:17:06;583840.00;1.95;1006.33;0.00;0.00;0.62;;;;;7.80;1.00;;;;;;2280608;60;1674;-89
2022/01/08 03:19:40;516124.00;1.72;889.59;0.00;0.00;0.62;;;;;7.80;1.00;;;;;;2284348;60;929;-89
2022/01/08 03:22:33;;;;;;;;;;;;;;;;;;;;;
2022/01/08 03:25:05;462020.00;1.54;796.46;0.00;0.00;0.62;;;;;7.90;1.00;;;;;;2284313;60;910;-89
2022/01/08 03:27:48;590738.00;1.97;1018.23;1567.00;0.01;3.34;;;;;7.80;1.00;;;;;;2284206;60;1597;-90
2022/01/08 03:30:22;466921.00;1.56;804.89;0.00;0.00;0.62;;;;;7.70;1.00;;;;;;2284149;60;1593;-90
2022/01/08 03:33:18;642288.00;2.14;1107.30;92265.00;0.31;160.22;;;;;8.20;1.00;;;;;;2284094;60;1653;-90
2022/01/08 03:36:37;873485.00;2.91;1509.60;0.00;0.00;0.62;;;;;7.50;1.00;;;;;;2263389;61;1164;-89
2022/01/08 03:39:09;637292.00;2.12;1098.66;0.00;0.00;0.62;;;;;7.20;1.00;;;;;;2243347;62;1085;-89
2022/01/08 03:41:46;469948.00;1.57;810.10;0.00;0.00;0.62;;;;;7.30;1.00;;;;;;2235535;62;2007;-89
2022/01/08 03:44:19;500138.00;1.67;862.06;0.00;0.00;0.62;;;;;7.60;1.00;;;;;;2228181;62;975;-89
2022/01/08 03:47:22;492270.00;1.64;848.52;0.00;0.00;0.62;;;;;7.60;1.00;;;;;;2228388;62;1006;-89
2022/01/08 03:49:53;394951.00;1.32;681.13;0.00;0.00;0.62;;;;;7.80;1.00;;;;;;2228408;62;1660;-90
2022/01/08 03:52:30;438144.00;1.46;755.39;0.00;0.00;0.62;;;;;7.70;1.00;;;;;;2228425;62;1401;-91
2022/01/08 03:55:07;;;;;;;;;;;;;;;;;;;;;
2022/01/08 03:57:37;611558.00;2.04;1054.18;92773.00;0.31;161.10;;;;;7.70;1.00;;;;;;2228535;62;1057;-90
2022/01/08 04:00:12;640968.00;2.14;1105.01;101685.00;0.34;176.48;;;;;7.80;1.00;;;;;;2231576;62;1744;-90
2022/01/08 04:02:44;696185.00;2.32;1200.62;96237.00;0.32;167.08;;;;;7.60;1.00;;;;;;2240075;62;2335;-88
2022/01/08 04:08:46;571470.00;1.90;984.98;0.00;0.00;0.62;;;;;7.60;1.00;;;;;;2247895;61;1588;-90
2022/01/08 04:11:14;580514.00;1.94;1000.59;0.00;0.00;0.62;;;;;7.00;1.00;;;;;;2252003;61;1295;-90
2022/01/08 04:13:44;542666.00;1.81;935.32;0.00;0.00;0.62;;;;;6.80;1.00;;;;;;2250980;61;1051;-90
2022/01/08 04:16:23;527487.00;1.76;909.16;0.00;0.00;0.62;;;;;6.60;1.00;;;;;;2247980;61;1030;-89
2022/01/08 04:18:56;505903.00;1.69;871.99;0.00;0.00;0.62;;;;;6.70;1.00;;;;;;2244048;61;1017;-91
2022/01/08 04:24:21;391019.00;1.30;674.37;0.00;0.00;0.62;;;;;6.80;1.00;;;;;;2220633;62;1097;-89
2022/01/08 04:27:01;;;;;;;;;;;;;;;;;;;;;
2022/01/08 04:29:37;736837.00;2.46;1271.18;74923.00;0.25;130.27;;;;;7.30;1.00;;;;;;2211199;62;1119;-90
2022/01/08 04:32:16;639965.00;2.13;1103.28;0.00;0.00;0.62;;;;;7.20;1.00;;;;;;2220167;62;1606;-90
2022/01/08 04:34:53;695066.00;2.32;1198.68;0.00;0.00;0.62;;;;;7.20;1.00;;;;;;2221682;62;1774;-89
2022/01/08 04:37:28;834278.00;2.78;1440.97;114438.00;0.38;198.49;;;;;7.30;1.00;;;;;;2227093;62;946;-90
2022/01/08 04:40:06;;;;;;;;;;;;;;;;;;;;;
2022/01/08 04:42:33;1086029.00;3.62;1885.46;82172.00;0.27;142.79;;;;;8.20;1.00;;;;;;2235964;62;2007;-90
2022/01/08 04:45:12;1025227.00;3.42;1777.20;97017.00;0.32;168.42;;;;;8.20;1.00;;;;;;2240407;61;1736;-89
2022/01/08 04:47:44;692304.00;2.31;1193.90;39783.00;0.13;69.51;;;;;7.90;1.00;;;;;;2255854;61;1061;-88
2022/01/08 04:50:16;742174.00;2.47;1280.45;0.00;0.00;0.62;;;;;7.90;1.00;;;;;;2271667;61;1194;-89
2022/01/08 04:52:48;785216.00;2.62;1355.35;0.00;0.00;0.62;;;;;7.50;1.00;;;;;;2271751;61;1722;-88
2022/01/08 04:55:18;760731.00;2.54;1312.72;0.00;0.00;0.62;;;;;7.50;1.00;;;;;;2271823;61;1620;-88
2022/01/08 04:57:46;533235.00;1.78;919.07;0.00;0.00;0.62;;;;;7.40;1.00;;;;;;2271627;61;1190;-89
2022/01/08 05:00:27;623643.00;2.08;1075.06;0.00;0.00;0.62;;;;;6.90;1.00;;;;;;2275074;60;1347;-89
2022/01/08 05:03:06;503244.00;1.68;867.41;0.00;0.00;0.62;;;;;6.50;1.00;;;;;;2284619;60;1949;-90
2022/01/08 05:05:42;556778.00;1.86;959.64;0.00;0.00;0.62;;;;;6.80;1.00;;;;;;2271938;61;972;-89
2022/01/08 05:08:20;515613.00;1.72;888.71;0.00;0.00;0.62;;;;;6.90;1.00;;;;;;2271893;61;1666;-89
2022/01/08 05:11:10;548505.00;1.83;945.38;0.00;0.00;0.62;;;;;6.60;1.00;;;;;;2271741;61;1532;-91
2022/01/08 05:20:43;;;;;;;;;;;;;;;;;;;;;
2022/01/08 05:23:30;392769.00;1.31;677.37;0.00;0.00;0.62;;;;;7.30;1.00;;;;;;2246351;61;1022;-88
2022/01/08 05:26:24;;;;;;;;;;;;;;;;;;;;;
2022/01/08 05:32:38;750015.00;2.50;1294.08;0.00;0.00;0.62;;;;;6.40;1.00;;;;;;2231871;62;1247;-89
2022/01/08 05:35:30;714446.00;2.38;1232.30;0.00;0.00;0.62;;;;;6.30;1.00;;;;;;2239838;62;984;-89
2022/01/08 05:38:07;580486.00;1.93;1000.54;0.00;0.00;0.62;;;;;6.20;1.00;;;;;;2231908;62;1009;-88
2022/01/08 05:43:43;593133.00;1.98;1022.36;0.00;0.00;0.62;;;;;6.50;1.00;;;;;;2231840;62;1063;-88
2022/01/08 05:46:26;611045.00;2.04;1053.29;0.00;0.00;0.62;;;;;6.50;1.00;;;;;;2224252;62;1000;-88
2022/01/08 05:49:22;;;;;;;;;;;;;;;;;;;;;
2022/01/08 05:52:11;;;;;;;;;;;;;;;;;;;;;
2022/01/08 05:54:47;415380.00;1.38;716.25;0.00;0.00;0.62;;;;;6.30;1.00;;;;;;2227687;62;1002;-88
2022/01/08 05:57:20;631202.00;2.10;1088.13;0.00;0.00;0.62;;;;;6.50;1.00;;;;;;2231799;62;985;-89
2022/01/08 05:59:53;516080.00;1.72;889.51;0.00;0.00;0.62;;;;;6.80;1.00;;;;;;2224117;62;944;-88
2022/01/08 06:02:21;123956944.00;413.19;77162496.00;0.00;0.00;0.62;;;;;6.90;1.00;;;;;;2220160;62;1937;-87
2022/01/08 06:04:57;643930.00;2.15;1110.14;0.00;0.00;0.62;;;;;6.80;1.00;;;;;;2220183;62;1074;-88
2022/01/08 06:07:26;555766.00;1.85;957.90;0.00;0.00;0.62;;;;;6.90;1.00;;;;;;2222684;62;955;-88
2022/01/08 06:09:55;572360.00;1.91;986.52;0.00;0.00;0.62;;;;;7.20;1.00;;;;;;2235319;62;1603;-88
2022/01/08 06:12:27;531571.00;1.77;916.20;0.00;0.00;0.62;;;;;7.40;1.00;;;;;;2235667;62;1653;-87
2022/01/08 06:15:17;636549.00;2.12;1097.37;0.00;0.00;0.62;;;;;7.20;1.00;;;;;;2237379;62;1791;-87
2022/01/08 06:17:55;336330.00;1.12;580.37;0.00;0.00;0.62;;;;;7.30;1.00;;;;;;2237360;62;950;-89
2022/01/08 06:20:43;;;;;;;;;;;;;;;;;;;;;
2022/01/08 06:23:24;800139.00;2.67;1381.37;90729.00;0.30;157.57;;;;;6.90;1.00;;;;;;2235589;62;2004;-88
2022/01/08 06:25:55;963616.00;3.21;1668.14;94917.00;0.32;164.80;;;;;6.80;1.00;;;;;;2238331;62;1620;-88
2022/01/08 06:28:56;;;;;;;;;;;;;;;;;;;;;
2022/01/08 06:34:40;553375.00;1.84;953.78;0.00;0.00;0.62;;;;;7.10;1.00;;;;;;2239058;62;1580;-88
2022/01/08 06:37:17;631908.00;2.11;1089.35;0.00;0.00;0.62;;;;;7.00;1.00;;;;;;2243680;62;1243;-88
2022/01/08 06:39:44;696613.00;2.32;1201.37;0.00;0.00;0.62;;;;;6.90;1.00;;;;;;2251452;61;940;-90
2022/01/08 06:42:13;618238.00;2.06;1065.72;0.00;0.00;0.62;;;;;7.50;1.00;;;;;;2266484;61;2014;-90
2022/01/08 06:44:40;692027.00;2.31;1193.42;0.00;0.00;0.62;;;;;7.70;1.00;;;;;;2268738;61;952;-89
2022/01/08 06:47:10;664698.00;2.22;1146.07;0.00;0.00;0.62;;;;;7.70;1.00;;;;;;2275548;61;1048;-90
2022/01/08 06:49:45;537453.00;1.79;926.33;0.00;0.00;0.62;;;;;8.10;1.00;;;;;;2275360;61;1050;-89
2022/01/08 06:52:19;521098.00;1.74;898.16;0.00;0.00;0.62;;;;;7.70;1.00;;;;;;2275311;61;1790;-88
2022/01/08 06:57:43;811119.00;2.70;1400.52;59844.00;0.20;104.21;;;;;7.30;1.00;;;;;;2278697;60;1057;-89
2022/01/08 07:00:14;630488.00;2.10;1086.89;95854.00;0.32;166.41;;;;;7.20;1.00;;;;;;2284139;60;1750;-89
2022/01/08 07:02:41;687342.00;2.29;1185.30;72850.00;0.24;126.69;;;;;7.30;1.00;;;;;;2284101;60;1992;-88
2022/01/08 07:05:10;801837.00;2.67;1384.33;102252.00;0.34;177.46;;;;;7.10;1.00;;;;;;2284190;60;1081;-89
2022/01/08 07:07:43;773498.00;2.58;1334.94;86592.00;0.29;150.42;;;;;7.40;1.00;;;;;;2284114;60;1455;-90
2022/01/08 07:10:20;765431.00;2.55;1320.90;96749.00;0.32;167.96;;;;;7.90;1.00;;;;;;2271483;61;941;-88
2022/01/08 07:12:49;922525.00;3.08;1595.72;0.00;0.00;0.62;;;;;8.10;1.00;;;;;;2271351;61;1587;-89
2022/01/08 07:15:26;741034.00;2.47;1278.47;0.00;0.00;0.62;;;;;8.40;1.00;;;;;;2271419;61;1564;-89
2022/01/08 07:17:55;711917.00;2.37;1227.91;0.00;0.00;0.62;;;;;8.10;1.00;;;;;;2271365;61;1012;-89
2022/01/08 07:20:23;631368.00;2.10;1088.41;0.00;0.00;0.62;;;;;7.40;1.00;;;;;;2271328;61;1605;-88
2022/01/08 07:22:51;734199.00;2.45;1266.60;0.00;0.00;0.62;;;;;7.30;1.00;;;;;;2271332;61;1992;-89
2022/01/08 09:08:46;666960.00;2.22;1149.99;0.00;0.00;0.62;;;;;7.30;1.00;;;;;;2290368;60;1216;-88
2022/01/08 09:11:15;663787.00;2.21;1144.50;0.00;0.00;0.62;;;;;7.20;1.00;;;;;;2279966;61;1333;-89
2022/01/08 09:13:43;761055.00;2.54;1313.29;22906.00;0.08;40.30;;;;;7.40;1.00;;;;;;2271630;61;1007;-89
2022/01/08 09:16:11;675155.00;2.25;1164.18;24497.00;0.08;43.06;;;;;7.40;1.00;;;;;;2261898;61;956;-90
2022/01/08 09:18:41;502577.00;1.68;866.26;0.00;0.00;0.62;;;;;7.60;1.00;;;;;;2259746;61;986;-89
2022/01/08 09:21:17;666695.00;2.22;1149.53;0.00;0.00;0.62;;;;;7.40;1.00;;;;;;2255677;61;1290;-89
2022/01/08 09:23:44;362307.00;1.21;625.01;0.00;0.00;0.62;;;;;7.60;1.00;;;;;;2251769;61;1942;-89
2022/01/08 09:26:16;385574.00;1.29;665.01;0.00;0.00;0.62;;;;;7.20;1.00;;;;;;2251857;61;1069;-90
2022/01/08 09:28:45;692746.00;2.31;1194.66;49226.00;0.16;85.85;;;;;6.90;1.00;;;;;;2253834;61;1073;-89
2022/01/08 09:31:13;398909.00;1.33;687.93;0.00;0.00;0.62;;;;;7.30;1.00;;;;;;2261746;61;1309;-89
2022/01/08 09:33:42;512417.00;1.71;883.20;0.00;0.00;0.62;;;;;7.40;1.00;;;;;;2267950;61;1058;-89
2022/01/08 09:36:09;523621.00;1.75;902.50;0.00;0.00;0.62;;;;;7.50;1.00;;;;;;2268866;61;974;-89
2022/01/08 09:38:44;655872.00;2.19;1130.80;22794.00;0.08;40.11;;;;;7.30;1.00;;;;;;2260686;61;965;-88
2022/01/08 09:41:22;231993.00;0.77;400.98;0.00;0.00;0.62;;;;;7.20;1.00;;;;;;2266409;61;1645;-89
2022/01/08 09:43:51;541040.00;1.80;932.52;0.00;0.00;0.62;;;;;7.20;1.00;;;;;;2275771;61;2022;-89
2022/01/08 09:46:25;381742.00;1.27;658.42;0.00;0.00;0.62;;;;;7.20;1.00;;;;;;2275868;61;1158;-88
2022/01/08 09:48:53;424261.00;1.41;731.52;0.00;0.00;0.62;;;;;7.10;1.00;;;;;;2275839;61;1820;-87
2022/01/08 09:51:23;497285.00;1.66;857.15;0.00;0.00;0.62;;;;;7.60;1.00;;;;;;2275739;61;1679;-89
2022/01/08 09:53:50;589381.00;1.96;1015.89;0.00;0.00;0.62;;;;;8.00;1.00;;;;;;2275786;61;1641;-89
2022/01/08 09:56:47;662442.00;2.21;1142.17;39333.00;0.13;68.73;;;;;7.60;1.00;;;;;;2278722;60;1708;-90
2022/01/08 09:59:14;482320.00;1.61;831.39;0.00;0.00;0.62;;;;;7.70;1.00;;;;;;2284438;60;1710;-88
2022/01/08 10:02:07;368237.00;1.23;635.21;0.00;0.00;0.62;;;;;7.70;1.00;;;;;;2284210;60;1927;-89
2022/01/08 10:04:55;394037.00;1.31;679.55;0.00;0.00;0.62;;;;;7.70;1.00;;;;;;2284310;60;1490;-89
2022/01/08 10:07:35;745038.00;2.48;1285.43;95997.00;0.32;166.66;;;;;8.60;1.00;;;;;;2284284;60;1589;-90
2022/01/08 10:10:12;881192.00;2.94;1523.11;92756.00;0.31;161.07;;;;;8.60;1.00;;;;;;2284366;60;1611;-90
2022/01/08 10:12:52;803760.00;2.68;1387.68;98667.00;0.33;171.27;;;;;8.70;1.00;;;;;;2284368;60;1444;-89
2022/01/08 10:18:21;702770.00;2.34;1212.04;0.00;0.00;0.62;;;;;8.20;1.00;;;;;;2284408;60;714;-90
2022/01/08 10:20:55;670577.00;2.24;1156.25;75613.00;0.25;131.46;;;;;7.40;1.00;;;;;;2275718;61;1404;-90
2022/01/08 10:23:27;785063.00;2.62;1355.09;0.00;0.00;0.62;;;;;7.80;1.00;;;;;;2275621;61;1920;-91
2022/01/08 10:26:05;685022.00;2.28;1181.27;8195.00;0.03;14.82;;;;;8.10;1.00;;;;;;2275620;61;1806;-90
2022/01/08 10:28:43;629543.00;2.10;1085.26;0.00;0.00;0.62;;;;;7.60;1.00;;;;;;2275679;61;1609;-90
2022/01/08 10:31:19;725715.00;2.42;1251.86;63317.00;0.21;110.21;;;;;7.50;1.00;;;;;;2275687;61;1566;-90
2022/01/08 10:37:26;641611.00;2.14;1106.13;0.00;0.00;0.62;;;;;8.00;1.00;;;;;;2275500;61;1069;-89
2022/01/08 10:39:58;875756.00;2.92;1513.58;0.00;0.00;0.62;;;;;7.50;1.00;;;;;;2262451;61;1548;-88
2022/01/08 10:42:25;879253.00;2.93;1519.71;47963.00;0.16;83.66;;;;;6.60;1.00;;;;;;2263494;61;2004;-88
2022/01/08 10:44:55;471304.00;1.57;812.43;0.00;0.00;0.62;;;;;6.60;1.00;;;;;;2263648;61;1598;-88
2022/01/08 10:47:23;612496.00;2.04;1055.80;39357.00;0.13;68.78;;;;;6.90;1.00;;;;;;2263579;61;1568;-88
2022/01/08 10:50:00;663248.00;2.21;1143.56;0.00;0.00;0.62;;;;;6.60;1.00;;;;;;2263645;61;1590;-88
2022/01/08 10:52:44;382855.00;1.28;660.33;0.00;0.00;0.62;;;;;6.80;1.00;;;;;;2263548;61;1310;-88
2022/01/08 10:55:13;544259.00;1.81;938.06;0.00;0.00;0.62;;;;;7.10;1.00;;;;;;2263473;61;1453;-88
2022/01/08 10:57:46;646008.00;2.15;1113.73;51957.00;0.17;90.57;;;;;7.30;1.00;;;;;;2263559;61;1671;-88
2022/01/08 11:00:16;762644.00;2.54;1316.05;0.00;0.00;0.62;;;;;7.70;1.00;;;;;;2263357;61;1485;-90
2022/01/08 11:02:44;466023.00;1.55;803.35;0.00;0.00;0.62;;;;;7.90;1.00;;;;;;2263324;61;2020;-90
2022/01/08 11:05:13;381908.00;1.27;658.70;0.00;0.00;0.62;;;;;8.10;1.00;;;;;;2263530;61;1577;-89
2022/01/08 11:07:45;699071.00;2.33;1205.63;460.00;0.00;1.42;;;;;8.60;1.00;;;;;;2263448;61;1662;-88
2022/01/08 11:10:18;469525.00;1.57;809.37;0.00;0.00;0.62;;;;;8.60;1.00;;;;;;2283263;60;1607;-87
2022/01/08 11:12:51;596668.00;1.99;1028.47;0.00;0.00;0.62;;;;;8.50;1.00;;;;;;2284273;60;1426;-88
2022/01/08 11:15:35;375278.00;1.25;647.31;0.00;0.00;0.62;;;;;8.50;1.00;;;;;;2284301;60;1239;-90
2022/01/08 11:18:02;485744.00;1.62;837.28;0.00;0.00;0.62;;;;;8.10;1.00;;;;;;2284264;60;1704;-89
2022/01/08 11:20:35;436075.00;1.45;751.83;0.00;0.00;0.62;;;;;8.60;1.00;;;;;;2284246;60;1739;-89
2022/01/08 11:23:08;696487.00;2.32;1201.15;13256.00;0.04;23.59;;;;;8.50;1.00;;;;;;2284043;60;2013;-89
2022/01/08 11:25:39;470916.00;1.57;811.77;0.00;0.00;0.62;;;;;8.60;1.00;;;;;;2284224;60;1540;-89
2022/01/08 11:28:11;638879.00;2.13;1101.40;0.00;0.00;0.62;;;;;8.60;1.00;;;;;;2284185;60;1480;-89
2022/01/08 11:30:43;544993.00;1.82;939.33;0.00;0.00;0.62;;;;;9.10;1.00;;;;;;2284193;60;1624;-89
2022/01/08 11:33:15;464360.00;1.55;800.49;0.00;0.00;0.62;;;;;9.50;1.00;;;;;;2284324;60;1029;-89
2022/01/08 11:35:44;308585.00;1.03;532.68;0.00;0.00;0.62;;;;;9.80;1.00;;;;;;2284164;60;1582;-87
2022/01/08 11:38:14;303506.00;1.01;523.95;0.00;0.00;0.62;;;;;9.80;1.00;;;;;;2284304;60;913;-86
2022/01/08 11:40:43;499763.00;1.67;861.42;0.00;0.00;0.62;;;;;9.90;1.00;;;;;;2284224;60;1374;-88
2022/01/08 11:43:13;663407.00;2.21;1143.84;62833.00;0.21;109.37;;;;;10.00;1.00;;;;;;2284161;60;1993;-88
2022/01/08 11:45:47;555123.00;1.85;956.79;22733.00;0.08;40.00;;;;;9.50;1.00;;;;;;2284169;60;1804;-89
2022/01/08 11:48:16;373365.00;1.24;644.02;0.00;0.00;0.62;;;;;8.80;1.00;;;;;;2284154;60;1469;-89
2022/01/08 11:50:52;553223.00;1.84;953.52;0.00;0.00;0.62;;;;;8.00;1.00;;;;;;2284119;60;1601;-89
2022/01/08 11:53:21;512756.00;1.71;883.79;0.00;0.00;0.62;;;;;8.00;1.00;;;;;;2284156;60;777;-89
2022/01/08 11:55:51;420070.00;1.40;724.31;0.00;0.00;0.62;;;;;8.00;1.00;;;;;;2284118;60;1461;-90
2022/01/08 11:58:22;423171.00;1.41;729.64;0.00;0.00;0.62;;;;;8.50;1.00;;;;;;2284112;60;1734;-89
2022/01/08 12:00:54;373389.00;1.24;644.06;0.00;0.00;0.62;;;;;8.60;1.00;;;;;;2284141;60;1727;-89
2022/01/08 12:03:24;523615.00;1.75;902.49;0.00;0.00;0.62;;;;;8.60;1.00;;;;;;2284142;60;1981;-88
2022/01/08 12:05:51;493381.00;1.64;850.43;0.00;0.00;0.62;;;;;7.90;1.00;;;;;;2284470;60;1004;-90
2022/01/08 12:08:21;573063.00;1.91;987.73;0.00;0.00;0.62;;;;;8.20;1.00;;;;;;2284767;60;1029;-90
2022/01/08 12:10:58;478018.00;1.59;823.99;0.00;0.00;0.62;;;;;8.60;1.00;;;;;;2284812;60;1489;-90
2022/01/08 12:13:47;266465.00;0.89;460.27;0.00;0.00;0.62;;;;;8.60;1.00;;;;;;2284791;60;1618;-89
2022/01/08 12:16:36;449912.00;1.50;775.63;0.00;0.00;0.62;;;;;8.50;1.00;;;;;;2284762;60;1633;-89
2022/01/08 12:19:15;;;;;;;;;;;;;;;;;;;;;
2022/01/08 12:21:47;471792.00;1.57;813.27;65533.00;0.22;114.04;;;;;8.80;1.00;;;;;;2284349;60;1565;-89
2022/01/08 12:24:33;461566.00;1.54;795.68;50633.00;0.17;88.28;;;;;9.10;1.00;;;;;;2284820;60;1915;-88
2022/01/08 12:27:02;314771.00;1.05;543.31;0.00;0.00;0.62;;;;;8.50;1.00;;;;;;2284772;60;1740;-88
2022/01/08 12:29:37;797990.00;2.66;1377.62;61905.00;0.21;107.77;;;;;8.40;1.00;;;;;;2284744;60;1504;-88
2022/01/08 12:32:44;473969.00;1.58;817.02;0.00;0.00;0.62;;;;;8.50;1.00;;;;;;2284759;60;1452;-88
2022/01/08 12:35:25;413536.00;1.38;713.08;0.00;0.00;0.62;;;;;8.70;1.00;;;;;;2284718;60;1679;-88
2022/01/08 12:37:57;505218.00;1.68;870.81;0.00;0.00;0.62;;;;;8.80;1.00;;;;;;2284651;60;1575;-88
2022/01/08 12:40:37;292828.00;0.98;505.59;0.00;0.00;0.62;;;;;8.90;1.00;;;;;;2284753;60;1548;-88
2022/01/08 12:43:28;461239.00;1.54;795.12;0.00;0.00;0.62;;;;;8.60;1.00;;;;;;2284730;60;2000;-89
2022/01/08 12:46:13;426933.00;1.42;736.11;0.00;0.00;0.62;;;;;8.60;1.00;;;;;;2284792;60;980;-88
2022/01/08 12:49:19;640880.00;2.14;1104.86;0.00;0.00;0.62;;;;;8.30;1.00;;;;;;2284702;60;1774;-88
2022/01/08 12:52:11;697757.00;2.33;1203.35;66224.00;0.22;115.23;;;;;8.30;1.00;;;;;;2284702;60;1516;-89
2022/01/08 12:54:54;387995.00;1.29;669.17;0.00;0.00;0.62;;;;;9.00;1.00;;;;;;2284637;60;1693;-88
2022/01/08 12:57:31;614136.00;2.05;1058.63;0.00;0.00;0.62;;;;;9.20;1.00;;;;;;2284652;60;1727;-89
2022/01/08 13:00:04;619688.00;2.07;1068.23;45588.00;0.15;79.56;;;;;8.80;1.00;;;;;;2284706;60;1228;-89
2022/01/08 13:02:39;558332.00;1.86;962.32;66022.00;0.22;114.89;;;;;8.50;1.00;;;;;;2275882;61;1371;-88
2022/01/08 13:07:35;707596.00;2.36;1220.41;0.00;0.00;0.62;;;;;7.20;1.00;;;;;;2290500;60;1401;-88
2022/01/08 13:10:03;481926.00;1.61;830.71;0.00;0.00;0.62;;;;;7.30;1.00;;;;;;2276039;61;997;-89
2022/01/08 13:12:30;463038.00;1.54;798.21;0.00;0.00;0.62;;;;;7.70;1.00;;;;;;2267817;61;1443;-90
2022/01/08 13:15:01;459895.00;1.53;792.80;0.00;0.00;0.62;;;;;7.80;1.00;;;;;;2263799;61;1042;-90
2022/01/08 13:17:29;491495.00;1.64;847.18;0.00;0.00;0.62;;;;;7.90;1.00;;;;;;2255708;61;914;-90
2022/01/08 13:20:03;519324.00;1.73;895.10;84491.00;0.28;146.79;;;;;8.20;1.00;;;;;;2255864;61;1000;-90
2022/01/08 13:22:31;697380.00;2.32;1202.70;0.00;0.00;0.62;;;;;8.00;1.00;;;;;;2255814;61;1382;-89
2022/01/08 13:25:01;363016.00;1.21;626.23;0.00;0.00;0.62;;;;;8.10;1.00;;;;;;2255790;61;1932;-90
2022/01/08 13:27:30;309649.00;1.03;534.51;0.00;0.00;0.62;;;;;8.20;1.00;;;;;;2256679;61;1435;-89
2022/01/08 13:29:57;366504.00;1.22;632.23;0.00;0.00;0.62;;;;;8.70;1.00;;;;;;2259760;61;1671;-90
2022/01/08 13:32:25;276678.00;0.92;477.83;0.00;0.00;0.62;;;;;8.50;1.00;;;;;;2262585;61;1380;-89
2022/01/08 13:53:40;649980.00;2.17;1120.60;91038.00;0.30;158.10;;;;;8.20;1.00;;;;;;2235027;62;1095;-89
2022/01/08 19:35:35;760027.00;2.53;1311.50;92922.00;0.31;161.35;;;;;8.40;1.00;;;;;;2256058;61;965;-88